Time;durP1;ratioP1;P1;durP2;ratioP2;P2;SDS_P1;SDS_P2;PMS_P1;PMS_P2;Temp;Humidity;BMP_temperature;BMP_pressure;BME280_temperature;BME280_humidity;BME280_pressure;Samples;Min_cycle;Max_cycle;Signal;HPM_P1;HPM_P2
2023/03/08 00:00:56;;;;;;;1.70;0.70;;;;;;;11.59;70.68;93150.16;5041363;28;20025;-85
2023/03/08 00:03:22;;;;;;;3.22;0.60;;;;;;;11.68;68.35;93144.16;5041191;28;20025;-85
2023/03/08 00:05:47;;;;;;;3.75;0.68;;;;;;;11.64;68.75;93148.47;5058770;28;20442;-85
2023/03/08 00:08:13;;;;;;;4.25;0.98;;;;;;;12.34;64.93;93156.53;5057510;28;20024;-85
2023/03/08 00:10:38;;;;;;;1.67;0.68;;;;;;;12.27;64.40;93162.25;5057409;28;20071;-85
2023/03/08 00:13:04;;;;;;;2.10;0.60;;;;;;;11.87;66.65;93167.53;5057457;28;20453;-85
2023/03/08 00:15:29;;;;;;;4.25;0.68;;;;;;;11.86;66.77;93168.63;5057472;28;20346;-85
2023/03/08 00:17:55;;;;;;;2.30;0.65;;;;;;;12.12;66.91;93186.31;5058574;28;20334;-85
2023/03/08 00:20:20;;;;;;;1.10;0.57;;;;;;;12.71;64.28;93180.69;5040881;28;20431;-85
2023/03/08 00:22:46;;;;;;;4.28;1.10;;;;;;;11.93;67.27;93174.22;5058277;28;20025;-85
2023/03/08 00:25:15;;;;;;;2.70;0.85;;;;;;;13.01;62.46;93182.66;5056792;28;20024;-84
2023/03/08 00:27:40;;;;;;;2.35;0.80;;;;;;;12.61;62.86;93177.56;5058301;28;20453;-85
2023/03/08 00:30:06;;;;;;;3.20;0.52;;;;;;;12.21;65.62;93184.50;5057253;28;20025;-85
2023/03/08 00:32:32;;;;;;;2.00;0.80;;;;;;;11.96;68.11;93178.84;5057099;28;20355;-85
2023/03/08 00:34:57;;;;;;;1.13;0.60;;;;;;;12.68;64.29;93178.66;5040665;28;20021;-84
2023/03/08 00:37:23;;;;;;;1.67;0.65;;;;;;;12.65;64.09;93176.66;5056988;28;20012;-85
2023/03/08 00:39:52;;;;;;;1.38;0.70;;;;;;;12.02;68.44;93177.63;5056947;28;20031;-84
2023/03/08 00:42:19;;;;;;;0.63;0.40;;;;;;;11.68;71.91;93170.41;5040571;28;20025;-85
2023/03/08 00:44:45;;;;;;;0.93;0.63;;;;;;;11.77;70.67;93167.84;5056920;28;20025;-85
2023/03/08 00:47:10;;;;;;;0.95;0.50;;;;;;;11.92;68.16;93156.13;5056778;28;20079;-85
2023/03/08 00:49:35;;;;;;;1.10;0.50;;;;;;;12.50;66.37;93180.53;5056617;28;20035;-85
2023/03/08 00:52:01;;;;;;;2.63;0.57;;;;;;;11.74;70.04;93177.06;5056720;28;20027;-84
2023/03/08 00:54:28;;;;;;;0.98;0.60;;;;;;;12.10;68.68;93168.25;5056726;28;20025;-84
2023/03/08 00:56:54;;;;;;;0.82;0.50;;;;;;;11.97;67.92;93169.88;5056607;28;20108;-85
2023/03/08 00:59:19;;;;;;;2.20;0.63;;;;;;;12.20;67.09;93179.53;5040013;28;20131;-85
2023/03/08 01:01:45;;;;;;;1.13;0.52;;;;;;;11.84;69.11;93166.31;5056483;28;20031;-84
2023/03/08 01:04:11;;;;;;;3.00;0.60;;;;;;;12.16;67.53;93155.75;5040102;28;20028;-85
2023/03/08 01:06:37;;;;;;;0.93;0.60;;;;;;;12.26;67.85;93150.19;5057576;28;20025;-85
2023/03/08 01:09:03;;;;;;;2.08;0.50;;;;;;;12.58;65.90;93153.47;5056460;28;20090;-85
2023/03/08 01:11:28;;;;;;;1.10;0.40;;;;;;;12.65;65.08;93141.72;5040051;28;20439;-85
2023/03/08 01:13:54;;;;;;;2.10;0.50;;;;;;;12.69;63.94;93148.66;5057480;28;20025;-85
2023/03/08 01:16:26;;;;;;;2.80;0.85;;;;;;;12.60;63.98;93147.91;5056280;28;20378;-85
2023/03/08 01:18:52;;;;;;;3.25;1.00;;;;;;;12.21;63.18;93145.09;5039860;28;20029;-85
2023/03/08 01:21:18;;;;;;;0.77;0.60;;;;;;;11.84;65.70;93144.53;5056260;28;20327;-85
2023/03/08 01:23:43;;;;;;;2.65;0.70;;;;;;;11.82;66.28;93141.44;5056118;28;20094;-85
2023/03/08 01:26:14;;;;;;;1.17;0.68;;;;;;;12.07;65.70;93147.09;5063897;28;20055;-85
2023/03/08 01:28:40;;;;;;;2.60;0.63;;;;;;;11.32;69.78;93151.91;5056008;28;20029;-85
2023/03/08 01:31:11;;;;;;;0.90;0.60;;;;;;;11.90;66.82;93150.41;5039661;28;20056;-85
2023/03/08 01:33:37;;;;;;;1.65;0.60;;;;;;;10.96;72.03;93147.53;5039618;28;20033;-85
2023/03/08 01:36:08;;;;;;;0.43;0.40;;;;;;;11.43;72.75;93151.66;5055912;28;20024;-85
2023/03/08 01:38:33;;;;;;;1.15;0.70;;;;;;;11.46;70.69;93146.56;5055867;28;20025;-85
2023/03/08 01:41:00;;;;;;;2.92;0.60;;;;;;;11.78;68.75;93151.00;5055853;28;20025;-85
2023/03/08 01:43:27;;;;;;;0.85;0.60;;;;;;;11.80;67.84;93159.34;5055795;28;20083;-85
2023/03/08 01:46:14;;;;;;;1.00;0.80;;;;;;;11.77;69.22;93165.22;5056929;28;20032;-85
2023/03/08 01:48:45;;;;;;;1.25;0.65;;;;;;;11.57;70.94;93172.53;5056891;28;20078;-85
2023/03/08 01:51:12;;;;;;;1.70;0.80;;;;;;;11.94;69.24;93175.75;5039280;28;20323;-85
2023/03/08 01:53:38;;;;;;;14.70;1.17;;;;;;;11.99;69.19;93169.59;5055694;28;20389;-85
2023/03/08 01:56:06;;;;;;;1.30;0.43;;;;;;;12.18;69.03;93179.06;5055573;28;20025;-85
2023/03/08 01:58:31;;;;;;;2.70;0.80;;;;;;;12.29;67.97;93191.59;5055391;28;20127;-85
2023/03/08 02:00:57;;;;;;;0.80;0.57;;;;;;;12.38;67.54;93182.97;5055823;28;20096;-85
2023/03/08 02:03:25;;;;;;;2.17;0.73;;;;;;;12.49;66.26;93188.69;5055488;28;20029;-85
2023/03/08 02:05:51;;;;;;;2.92;0.65;;;;;;;12.41;66.61;93190.25;5056596;28;20029;-85
2023/03/08 02:08:16;;;;;;;0.95;0.60;;;;;;;12.43;66.70;93170.47;5055632;28;20074;-85
2023/03/08 02:10:42;;;;;;;0.70;0.55;;;;;;;12.50;66.78;93177.91;5055320;28;20064;-85
2023/03/08 02:13:08;;;;;;;2.72;0.63;;;;;;;12.67;65.29;93179.75;5055458;28;20067;-85
2023/03/08 02:15:33;;;;;;;1.65;0.60;;;;;;;12.41;65.17;93171.84;5055398;28;20055;-85
2023/03/08 02:17:59;;;;;;;3.50;0.57;;;;;;;12.51;64.49;93168.13;5055370;28;20028;-84
2023/03/08 02:20:27;;;;;;;0.85;0.43;;;;;;;12.49;64.76;93172.94;5055255;28;20032;-85
2023/03/08 02:22:53;;;;;;;2.17;0.70;;;;;;;12.01;67.05;93164.81;5055746;28;20326;-85
2023/03/08 02:25:21;;;;;;;0.70;0.57;;;;;;;12.27;66.27;93151.75;5055357;28;20025;-85
2023/03/08 02:27:47;;;;;;;2.13;0.50;;;;;;;11.89;68.74;93152.25;5055220;28;20516;-85
2023/03/08 02:30:16;;;;;;;4.47;0.50;;;;;;;11.96;68.69;93146.56;5038612;28;20120;-85
2023/03/08 02:32:41;;;;;;;1.52;0.60;;;;;;;11.81;68.48;93148.53;5055192;28;20025;-85
2023/03/08 02:35:07;;;;;;;1.63;0.50;;;;;;;11.82;68.26;93149.31;5055235;28;20043;-85
2023/03/08 02:37:33;;;;;;;1.50;0.80;;;;;;;11.70;68.09;93148.03;5055205;28;20120;-85
2023/03/08 02:39:59;;;;;;;3.10;0.60;;;;;;;11.76;69.29;93146.06;5038672;28;20123;-84
2023/03/08 02:42:24;;;;;;;1.90;0.75;;;;;;;11.69;68.47;93136.00;5038398;28;20025;-84
2023/03/08 02:44:49;;;;;;;1.13;0.60;;;;;;;11.55;68.86;93140.56;5054939;28;20410;-85
2023/03/08 02:47:17;;;;;;;1.95;0.73;;;;;;;11.65;70.63;93139.53;5057033;28;20311;-84
2023/03/08 02:49:42;;;;;;;1.13;0.60;;;;;;;11.40;69.99;93134.66;5060153;28;20021;-85
2023/03/08 02:52:08;;;;;;;0.95;0.60;;;;;;;11.36;71.33;93138.97;5058884;28;20031;-84
2023/03/08 02:54:33;;;;;;;1.90;0.77;;;;;;;11.22;71.57;93152.16;5059193;28;20031;-85
2023/03/08 02:56:58;;;;;;;1.45;0.82;;;;;;;11.14;74.22;93151.03;5042510;28;20021;-85
2023/03/08 02:59:25;;;;;;;0.85;0.50;;;;;;;11.16;73.38;93148.88;5058720;28;20468;-84
2023/03/08 03:01:51;;;;;;;2.05;0.80;;;;;;;11.24;72.23;93157.09;5058804;28;20385;-84
2023/03/08 03:04:16;;;;;;;1.48;0.70;;;;;;;11.25;72.77;93148.16;5073691;28;20029;-84
2023/03/08 03:06:42;;;;;;;0.88;0.70;;;;;;;11.29;74.25;93142.03;5056324;28;20033;-84
2023/03/08 03:09:08;;;;;;;1.90;0.45;;;;;;;11.24;74.12;93133.50;5064649;28;20032;-85
2023/03/08 03:11:33;;;;;;;2.70;0.55;;;;;;;11.28;74.27;93129.19;5078577;28;20116;-85
2023/03/08 03:13:59;;;;;;;0.95;0.52;;;;;;;11.44;73.57;93122.47;5078675;28;20119;-85
2023/03/08 03:16:25;;;;;;;1.63;0.50;;;;;;;11.40;72.68;93132.03;5078685;28;20446;-85
2023/03/08 03:18:54;;;;;;;1.73;0.75;;;;;;;11.33;70.58;93142.16;5078409;28;20426;-85
2023/03/08 03:21:20;;;;;;;1.10;0.50;;;;;;;11.16;72.54;93142.88;5078501;28;20027;-85
2023/03/08 03:23:46;;;;;;;1.48;0.70;;;;;;;11.02;73.25;93137.69;5061912;28;20028;-85
2023/03/08 03:26:14;;;;;;;1.20;0.57;;;;;;;11.20;75.63;93149.06;5078376;28;20035;-85
2023/03/08 03:28:39;;;;;;;1.55;0.80;;;;;;;11.40;74.34;93137.28;5068974;28;20025;-85
2023/03/08 03:31:07;;;;;;;0.70;0.50;;;;;;;11.18;74.28;93151.97;5079518;28;20032;-84
2023/03/08 03:33:33;;;;;;;1.15;0.90;;;;;;;11.40;73.54;93146.97;5061825;28;20384;-85
2023/03/08 03:35:58;;;;;;;1.25;0.50;;;;;;;11.45;71.82;93150.25;5061728;28;20020;-84
2023/03/08 03:38:24;;;;;;;1.38;0.60;;;;;;;11.48;72.49;93158.59;5077989;28;20021;-84
2023/03/08 03:40:49;;;;;;;0.73;0.50;;;;;;;11.36;73.12;93156.53;5078208;28;20051;-85
2023/03/08 03:43:15;;;;;;;1.23;0.57;;;;;;;11.52;74.15;93155.06;5078078;28;20028;-85
2023/03/08 03:45:40;;;;;;;0.95;0.50;;;;;;;11.51;71.49;93163.25;5077940;28;20106;-84
2023/03/08 03:48:05;;;;;;;1.08;0.70;;;;;;;11.32;73.26;93167.63;5079193;28;20054;-84
2023/03/08 03:50:31;;;;;;;3.75;0.60;;;;;;;10.99;76.54;93161.88;5077892;28;20028;-84
2023/03/08 03:52:56;;;;;;;1.08;0.60;;;;;;;11.27;74.19;93178.25;5079035;28;20453;-84
2023/03/08 03:55:22;;;;;;;1.35;0.63;;;;;;;11.29;74.99;93175.31;5077936;28;20081;-84
2023/03/08 03:57:47;;;;;;;4.55;0.65;;;;;;;11.17;76.67;93174.03;5078392;28;20090;-84
2023/03/08 04:00:13;;;;;;;4.13;0.60;;;;;;;11.36;74.78;93183.53;5077031;28;20028;-84
2023/03/08 04:02:38;;;;;;;1.27;0.65;;;;;;;11.45;74.99;93186.97;5079247;28;20032;-84
2023/03/08 04:05:04;;;;;;;1.25;0.50;;;;;;;11.56;73.59;93184.88;5061128;28;20098;-84
2023/03/08 04:07:30;;;;;;;0.47;0.40;;;;;;;11.63;73.24;93176.56;5077807;28;20438;-84
2023/03/08 04:09:55;;;;;;;1.13;0.50;;;;;;;11.43;71.65;93183.88;5061021;28;20040;-85
2023/03/08 04:12:20;;;;;;;1.10;0.65;;;;;;;11.24;74.43;93183.31;5077587;28;20028;-84
2023/03/08 04:14:46;;;;;;;1.27;0.80;;;;;;;11.08;76.64;93180.28;5077527;28;20495;-85
2023/03/08 04:17:12;;;;;;;0.60;0.50;;;;;;;11.56;74.66;93181.47;5078657;28;20024;-84
2023/03/08 04:19:37;;;;;;;1.10;0.52;;;;;;;11.60;73.44;93172.69;5060563;28;20075;-84
2023/03/08 04:22:03;;;;;;;1.13;0.60;;;;;;;11.59;72.92;93176.41;5077312;28;20126;-84
2023/03/08 04:24:28;;;;;;;1.65;0.70;;;;;;;11.27;75.81;93182.72;5060770;28;20043;-84
2023/03/08 04:26:54;;;;;;;1.10;0.70;;;;;;;11.34;73.60;93172.59;5077489;28;20086;-84
2023/03/08 04:29:19;;;;;;;0.80;0.60;;;;;;;11.18;75.34;93180.03;5076411;28;20032;-84
2023/03/08 04:31:44;;;;;;;2.50;0.55;;;;;;;11.17;75.60;93176.63;5069435;28;20032;-84
2023/03/08 04:34:10;;;;;;;4.20;0.60;;;;;;;11.03;74.04;93168.06;5049614;28;20116;-84
2023/03/08 04:36:36;;;;;;;1.50;0.70;;;;;;;10.89;76.19;93171.53;5058192;28;20025;-85
2023/03/08 04:39:01;;;;;;;6.43;0.80;;;;;;;10.91;77.62;93183.59;5056871;28;20025;-85
2023/03/08 04:41:26;;;;;;;2.85;0.75;;;;;;;11.00;78.44;93187.03;5040620;28;20029;-84
2023/03/08 04:43:54;;;;;;;2.28;0.93;;;;;;;11.37;76.96;93203.44;5056946;28;20052;-84
2023/03/08 04:46:22;;;;;;;1.38;0.50;;;;;;;11.31;74.58;93202.00;5056733;28;20454;-84
2023/03/08 04:48:48;;;;;;;0.80;0.50;;;;;;;10.99;76.37;93212.47;5040329;28;20056;-84
2023/03/08 04:51:15;;;;;;;4.90;0.57;;;;;;;10.68;80.18;93215.75;5040766;28;20099;-85
2023/03/08 04:53:43;;;;;;;2.97;0.73;;;;;;;11.21;76.02;93218.78;5040314;28;20458;-84
2023/03/08 04:56:11;;;;;;;1.55;0.75;;;;;;;11.42;72.60;93213.81;5040665;28;20481;-85
2023/03/08 04:58:37;;;;;;;1.85;0.80;;;;;;;10.93;74.84;93226.75;5056464;28;20028;-84
2023/03/08 05:01:17;;;;;;;1.80;0.70;;;;;;;11.28;74.04;93220.97;5056547;28;20036;-85
2023/03/08 05:03:43;;;;;;;2.80;0.77;;;;;;;11.27;74.23;93233.31;5039962;28;20025;-84
2023/03/08 05:06:09;;;;;;;1.42;0.60;;;;;;;11.67;71.52;93229.97;5056473;28;20055;-84
2023/03/08 05:08:35;;;;;;;2.28;0.85;;;;;;;11.75;70.66;93223.22;5053144;28;20021;-84
2023/03/08 05:11:01;;;;;;;2.85;0.70;;;;;;;11.84;68.56;93220.63;5059607;28;20020;-84
2023/03/08 05:13:29;;;;;;;1.08;0.70;;;;;;;11.95;69.06;93215.88;5059876;28;20551;-84
2023/03/08 05:15:54;;;;;;;1.27;0.63;;;;;;;11.62;69.63;93209.13;5076240;28;20034;-85
2023/03/08 05:18:20;;;;;;;1.08;0.60;;;;;;;11.62;68.24;93214.38;5076124;28;20020;-84
2023/03/08 05:21:06;;;;;;;2.00;0.57;;;;;;;11.72;69.55;93205.47;5076214;28;20033;-84
2023/03/08 05:23:33;;;;;;;4.70;0.95;;;;;;;11.35;72.09;93213.47;5077154;28;20406;-85
2023/03/08 05:26:01;;;;;;;1.77;0.93;;;;;;;11.39;72.58;93208.38;5059670;28;20033;-85
2023/03/08 05:28:29;;;;;;;1.17;0.50;;;;;;;11.53;71.61;93208.31;5075864;28;20072;-85
2023/03/08 05:31:02;;;;;;;1.05;0.68;;;;;;;11.84;68.42;93204.88;5057964;28;20021;-85
2023/03/08 05:33:28;;;;;;;3.00;0.80;;;;;;;11.55;69.19;93208.78;5056029;28;20021;-84
2023/03/08 05:35:54;;;;;;;1.25;0.80;;;;;;;11.49;70.21;93202.88;5039226;28;20338;-85
2023/03/08 05:38:21;;;;;;;5.70;0.70;;;;;;;11.57;70.15;93210.03;5050329;28;20024;-85
2023/03/08 05:40:46;;;;;;;1.50;0.60;;;;;;;11.50;69.79;93209.69;5058459;28;20036;-86
2023/03/08 05:43:12;;;;;;;1.58;0.93;;;;;;;11.28;70.96;93203.41;5075923;28;20085;-86
2023/03/08 05:45:37;;;;;;;3.00;0.90;;;;;;;11.34;71.86;93196.19;5059310;28;20025;-86
2023/03/08 05:48:03;;;;;;;1.40;0.65;;;;;;;11.37;71.66;93195.59;5075770;28;20067;-85
2023/03/08 05:50:28;;;;;;;4.45;0.93;;;;;;;11.61;70.83;93189.19;5075519;28;20426;-86
2023/03/08 05:52:54;;;;;;;3.28;1.00;;;;;;;11.73;68.61;93199.16;5075777;28;20043;-85
2023/03/08 05:55:19;;;;;;;4.43;0.75;;;;;;;11.83;68.95;93198.84;5075674;28;20024;-84
2023/03/08 05:57:45;;;;;;;2.80;0.73;;;;;;;11.69;68.76;93201.59;5059151;28;20063;-85
2023/03/08 06:00:11;;;;;;;2.08;1.02;;;;;;;11.71;69.09;93207.31;5075388;28;20036;-84
2023/03/08 06:02:36;;;;;;;1.55;0.60;;;;;;;11.61;69.17;93212.81;5075566;28;20036;-85
2023/03/08 06:05:02;;;;;;;2.83;0.60;;;;;;;11.59;68.96;93217.59;5059103;28;20020;-85
2023/03/08 06:07:27;;;;;;;4.32;0.90;;;;;;;11.71;69.76;93219.66;5058924;28;20028;-84
2023/03/08 06:09:54;;;;;;;0.85;0.60;;;;;;;11.99;68.42;93214.22;5075440;28;20024;-86
2023/03/08 06:12:20;;;;;;;4.78;0.80;;;;;;;12.19;66.57;93207.63;5075551;28;20025;-85
2023/03/08 06:14:45;;;;;;;1.00;0.50;;;;;;;12.25;66.50;93201.19;5075494;28;20039;-86
2023/03/08 06:17:10;;;;;;;4.45;0.75;;;;;;;12.36;66.23;93204.28;5058854;28;20436;-86
2023/03/08 06:19:36;;;;;;;1.88;0.95;;;;;;;12.37;65.34;93205.81;5058786;28;20032;-86
2023/03/08 06:22:01;;;;;;;1.63;0.80;;;;;;;12.48;64.84;93208.97;5057992;28;20028;-85
2023/03/08 06:24:27;;;;;;;1.77;0.73;;;;;;;12.56;64.37;93210.03;5075358;28;20028;-86
2023/03/08 06:26:54;;;;;;;3.35;0.95;;;;;;;12.80;64.37;93220.09;5058759;28;20033;-85
2023/03/08 06:29:20;;;;;;;1.42;0.80;;;;;;;12.90;62.65;93223.50;5059202;28;20051;-85
2023/03/08 06:31:45;;;;;;;1.33;0.68;;;;;;;12.99;62.01;93232.16;5046850;28;20032;-86
2023/03/08 06:34:11;;;;;;;1.88;0.90;;;;;;;12.99;63.56;93237.41;5075057;28;20501;-85
2023/03/08 06:36:37;;;;;;;2.17;0.60;;;;;;;13.00;65.47;93233.69;5075184;28;20028;-86
2023/03/08 06:39:02;;;;;;;2.75;0.63;;;;;;;13.02;65.89;93231.53;5074956;28;20349;-85
2023/03/08 06:41:29;;;;;;;0.82;0.65;;;;;;;13.25;63.05;93245.28;5058714;28;20075;-85
2023/03/08 06:43:54;;;;;;;3.05;0.80;;;;;;;13.31;61.86;93245.91;5075248;28;20077;-86
2023/03/08 06:46:20;;;;;;;2.28;0.65;;;;;;;13.27;63.90;93237.09;5074894;28;20435;-85
2023/03/08 06:48:46;;;;;;;1.08;0.70;;;;;;;13.38;63.63;93235.69;5058555;28;20039;-85
2023/03/08 06:51:12;;;;;;;0.70;0.60;;;;;;;13.38;62.36;93234.91;5058274;28;20036;-85
2023/03/08 06:53:37;;;;;;;4.47;0.77;;;;;;;13.41;61.88;93242.94;5075043;28;20353;-85
2023/03/08 06:56:05;;;;;;;0.98;0.57;;;;;;;13.74;61.91;93244.31;5074989;28;20070;-85
2023/03/08 06:58:31;;;;;;;3.55;1.10;;;;;;;13.83;61.49;93254.81;5076050;28;20036;-85
2023/03/08 07:00:58;;;;;;;2.50;1.20;;;;;;;14.05;59.35;93258.28;5075012;28;20434;-85
2023/03/08 07:03:25;;;;;;;1.80;0.60;;;;;;;14.10;57.80;93261.50;5074995;28;20433;-85
2023/03/08 07:05:51;;;;;;;3.60;1.00;;;;;;;13.83;58.37;93276.63;5062766;28;20441;-86
2023/03/08 07:08:16;;;;;;;4.15;0.88;;;;;;;14.09;57.47;93278.41;5038200;28;20029;-85
2023/03/08 07:10:41;;;;;;;2.95;0.60;;;;;;;14.27;56.62;93283.59;5056751;28;20029;-86
2023/03/08 07:13:07;;;;;;;1.60;0.80;;;;;;;14.39;56.26;93270.53;5076021;28;20327;-85
2023/03/08 07:15:32;;;;;;;2.20;0.80;;;;;;;14.58;56.05;93269.38;5074930;28;20024;-86
2023/03/08 07:17:58;;;;;;;1.27;0.65;;;;;;;14.52;55.25;93281.94;5076041;28;20074;-85
2023/03/08 07:20:26;;;;;;;2.25;0.70;;;;;;;14.78;56.96;93277.63;5058225;28;20028;-85
2023/03/08 07:22:52;;;;;;;1.50;0.70;;;;;;;14.82;58.13;93274.03;5058405;28;20361;-85
2023/03/08 07:25:19;;;;;;;3.47;0.75;;;;;;;14.90;61.40;93264.53;5074819;28;20024;-85
2023/03/08 07:27:44;;;;;;;1.33;0.88;;;;;;;14.79;61.66;93269.41;5057919;28;20135;-85
2023/03/08 07:30:12;;;;;;;2.72;0.65;;;;;;;15.16;60.24;93273.34;5057725;28;20203;-85
2023/03/08 07:32:41;;;;;;;1.20;0.70;;;;;;;15.21;58.24;93289.00;5058882;28;20031;-85
2023/03/08 07:35:09;;;;;;;1.50;0.77;;;;;;;15.35;56.90;93296.63;5062269;28;20081;-85
2023/03/08 07:37:34;;;;;;;3.15;0.90;;;;;;;15.32;57.61;93303.31;5061458;28;20032;-85
2023/03/08 07:40:00;;;;;;;2.50;1.23;;;;;;;15.36;57.66;93309.50;5061594;28;20035;-85
2023/03/08 07:42:28;;;;;;;4.80;0.82;;;;;;;15.33;58.56;93315.41;5078127;28;20052;-85
2023/03/08 07:44:54;;;;;;;2.33;0.73;;;;;;;15.51;59.67;93304.72;5062047;28;20031;-85
2023/03/08 07:47:20;;;;;;;5.53;0.73;;;;;;;15.46;57.42;93323.38;5077992;28;20032;-86
2023/03/08 07:49:45;;;;;;;3.60;1.00;;;;;;;15.12;56.79;93315.41;5061525;28;20097;-86
2023/03/08 07:52:11;;;;;;;3.17;0.80;;;;;;;15.38;58.09;93319.72;5078130;28;20028;-85
2023/03/08 07:54:36;;;;;;;1.40;0.70;;;;;;;15.37;56.79;93316.31;5061509;28;20465;-87
2023/03/08 07:57:02;;;;;;;1.63;1.00;;;;;;;15.46;57.22;93323.38;5079241;28;20428;-87
2023/03/08 07:59:28;;;;;;;4.63;0.70;;;;;;;15.43;55.79;93319.53;5078054;28;20031;-86
2023/03/08 08:01:53;;;;;;;1.98;0.80;;;;;;;15.32;55.32;93316.50;5077801;28;20429;-87
2023/03/08 08:04:21;;;;;;;3.63;1.00;;;;;;;15.56;54.26;93315.06;5077429;28;20031;-87
2023/03/08 08:06:47;;;;;;;2.63;1.00;;;;;;;15.77;54.23;93317.69;5061334;28;20047;-87
2023/03/08 08:09:13;;;;;;;1.30;0.80;;;;;;;15.52;57.95;93316.81;5077730;28;20020;-87
2023/03/08 08:11:39;;;;;;;5.20;1.20;;;;;;;16.08;56.27;93326.28;5077578;28;20044;-87
2023/03/08 08:14:05;;;;;;;3.05;1.15;;;;;;;15.83;53.66;93326.19;5079019;28;20052;-86
2023/03/08 08:16:30;;;;;;;3.63;0.82;;;;;;;15.90;53.00;93318.50;5077512;28;20430;-87
2023/03/08 08:18:56;;;;;;;3.17;0.75;;;;;;;16.04;51.76;93298.94;5077642;28;20444;-87
2023/03/08 08:21:21;;;;;;;1.85;1.00;;;;;;;16.06;54.43;93300.16;5077877;28;20031;-86
2023/03/08 08:23:47;;;;;;;1.73;0.60;;;;;;;16.29;53.87;93299.00;5078484;28;20025;-87
2023/03/08 08:26:15;;;;;;;2.45;0.68;;;;;;;16.27;52.99;93309.88;5077525;28;20024;-87
2023/03/08 08:28:41;;;;;;;3.17;1.10;;;;;;;16.27;52.84;93309.13;5060693;28;20032;-87
2023/03/08 08:31:09;;;;;;;2.60;0.88;;;;;;;16.02;51.58;93319.63;5077403;28;20353;-87
2023/03/08 08:33:35;;;;;;;2.85;0.93;;;;;;;16.24;50.48;93324.53;5077444;28;20021;-87
2023/03/08 08:36:06;;;;;;;9.75;1.48;;;;;;;16.43;52.86;93322.47;5077146;28;20327;-87
2023/03/08 08:38:31;;;;;;;3.75;1.00;;;;;;;16.48;50.05;93336.22;5077066;28;20081;-87
2023/03/08 08:41:02;;;;;;;2.00;0.95;;;;;;;16.91;50.18;93350.00;5077335;28;20032;-87
2023/03/08 08:43:28;;;;;;;5.60;1.30;;;;;;;16.92;49.84;93356.06;5076912;28;20132;-87
2023/03/08 08:45:55;;;;;;;6.35;1.35;;;;;;;17.33;49.49;93351.63;5076539;28;20028;-87
2023/03/08 08:48:21;;;;;;;10.88;1.35;;;;;;;17.60;49.11;93357.28;5077538;28;20052;-87
2023/03/08 08:50:46;;;;;;;3.88;1.17;;;;;;;17.48;48.23;93357.31;5077109;28;20033;-87
2023/03/08 08:53:11;;;;;;;5.65;1.40;;;;;;;17.22;48.51;93361.16;5077289;28;20021;-87
2023/03/08 08:55:37;;;;;;;1.92;0.98;;;;;;;17.08;48.37;93362.28;5078096;28;20032;-87
2023/03/08 08:58:03;;;;;;;4.13;0.90;;;;;;;16.76;47.87;93358.59;5077091;28;20031;-87
2023/03/08 09:00:30;;;;;;;2.15;0.98;;;;;;;17.50;47.18;93361.19;5078228;28;20060;-87
2023/03/08 09:02:55;;;;;;;3.53;1.08;;;;;;;17.71;47.63;93354.91;5076639;28;20036;-87
2023/03/08 09:05:21;;;;;;;5.05;1.08;;;;;;;17.15;47.76;93364.34;5077904;28;20138;-86
2023/03/08 09:07:46;;;;;;;3.92;1.35;;;;;;;17.06;48.89;93366.34;5077545;28;20039;-87
2023/03/08 09:10:13;;;;;;;2.85;1.10;;;;;;;17.49;45.79;93358.84;5077150;28;20053;-87
2023/03/08 09:12:38;;;;;;;3.45;0.95;;;;;;;17.64;45.75;93360.03;5076900;28;20032;-87
2023/03/08 09:15:05;;;;;;;4.88;1.35;;;;;;;17.40;46.12;93359.00;5059905;28;20032;-87
2023/03/08 09:17:32;;;;;;;4.80;1.10;;;;;;;17.72;45.21;93361.00;5078349;28;20307;-87
2023/03/08 09:19:58;;;;;;;5.80;1.00;;;;;;;17.62;45.78;93352.41;5060149;28;20348;-87
2023/03/08 09:22:25;;;;;;;5.80;1.08;;;;;;;17.89;44.40;93354.66;5076453;28;20028;-86
2023/03/08 09:24:51;;;;;;;3.28;1.17;;;;;;;18.18;45.40;93348.22;5076175;28;20097;-87
2023/03/08 09:27:19;;;;;;;3.20;0.98;;;;;;;18.14;46.74;93360.63;5076507;28;20032;-87
2023/03/08 09:29:45;;;;;;;4.10;1.10;;;;;;;17.99;46.47;93356.03;5077337;28;20024;-87
2023/03/08 09:32:10;;;;;;;1.95;0.93;;;;;;;18.01;45.36;93354.59;5077460;28;20081;-87
2023/03/08 09:34:35;;;;;;;7.07;1.48;;;;;;;16.95;46.07;93358.81;5059518;28;20065;-86
2023/03/08 09:37:02;;;;;;;6.30;1.00;;;;;;;17.65;44.91;93349.13;5077425;28;20055;-86
2023/03/08 09:39:27;;;;;;;5.03;1.40;;;;;;;16.78;45.17;93359.06;5059392;28;20131;-86
2023/03/08 09:41:58;;;;;;;4.47;1.70;;;;;;;15.76;46.79;93355.75;5075893;28;20113;-85
2023/03/08 09:44:52;;;;;;;5.45;1.58;;;;;;;16.81;47.64;93374.25;5075748;28;20457;-86
2023/03/08 09:47:39;;;;;;;5.30;1.73;;;;;;;16.51;48.54;93371.81;5076923;28;20059;-86
2023/03/08 09:50:26;;;;;;;5.40;1.50;;;;;;;17.11;46.52;93368.75;5076863;28;20028;-85
2023/03/08 09:52:59;;;;;;;6.43;2.08;;;;;;;16.62;48.94;93370.28;5075900;28;20025;-86
2023/03/08 09:55:30;;;;;;;2.88;1.63;;;;;;;17.01;47.26;93363.94;5075805;28;20097;-85
2023/03/08 09:58:15;;;;;;;5.90;1.70;;;;;;;16.64;47.08;93360.16;5075050;28;20090;-85
2023/03/08 10:00:40;;;;;;;4.65;1.50;;;;;;;16.49;46.67;93374.00;5076770;28;20032;-85
2023/03/08 10:03:38;;;;;;;3.70;1.58;;;;;;;17.48;45.95;93386.44;5075929;28;20034;-85
2023/03/08 10:06:10;;;;;;;3.40;1.70;;;;;;;16.55;47.18;93385.91;5075762;28;20032;-85
2023/03/08 10:08:59;;;;;;;4.88;2.10;;;;;;;16.91;47.63;93388.91;5076647;28;20430;-85
2023/03/08 10:11:46;;;;;;;6.38;2.15;;;;;;;16.27;48.05;93393.69;5058941;28;20123;-86
2023/03/08 10:14:18;;;;;;;4.57;1.73;;;;;;;16.15;48.23;93397.09;5076707;28;20028;-85
2023/03/08 10:16:48;;;;;;;6.05;1.95;;;;;;;16.78;47.96;93399.47;5075507;28;20024;-85
2023/03/08 10:19:22;;;;;;;5.55;1.80;;;;;;;16.98;46.21;93389.13;5075236;28;20029;-85
2023/03/08 10:21:50;;;;;;;7.53;1.95;;;;;;;16.17;46.51;93395.63;5075312;28;20027;-85
2023/03/08 10:24:25;;;;;;;5.00;1.33;;;;;;;16.27;47.29;93393.69;5075398;28;20032;-85
2023/03/08 10:26:51;;;;;;;5.95;1.73;;;;;;;16.98;46.17;93383.84;5058725;28;20040;-85
2023/03/08 10:29:17;;;;;;;8.20;1.80;;;;;;;16.86;44.82;93383.84;5075252;28;20024;-85
2023/03/08 10:31:45;;;;;;;3.10;1.50;;;;;;;17.67;45.96;93386.63;5058802;28;20032;-85
2023/03/08 10:34:13;;;;;;;5.90;1.70;;;;;;;16.42;45.64;93390.41;5039193;28;20021;-85
2023/03/08 10:37:06;;;;;;;7.32;1.90;;;;;;;16.54;45.57;93393.09;5055205;28;20021;-85
2023/03/08 10:39:31;;;;;;;9.20;2.08;;;;;;;16.76;44.68;93404.34;5065533;28;20037;-85
2023/03/08 10:41:59;;;;;;;7.40;2.33;;;;;;;16.36;45.16;93381.91;5064991;28;20126;-85
2023/03/08 10:44:30;;;;;;;11.65;2.53;;;;;;;16.14;45.46;93383.09;5075192;28;20027;-85
2023/03/08 10:46:55;;;;;;;4.63;2.20;;;;;;;16.19;45.75;93360.97;5076581;28;20024;-84
2023/03/08 10:49:23;;;;;;;6.07;1.80;;;;;;;16.08;45.58;93363.25;5073306;28;20028;-85
2023/03/08 10:51:57;;;;;;;7.35;1.83;;;;;;;16.98;43.98;93352.09;5076317;28;20108;-85
2023/03/08 10:54:23;;;;;;;9.45;2.40;;;;;;;17.64;44.57;93349.44;5075171;28;20107;-85
2023/03/08 10:56:59;;;;;;;8.00;2.08;;;;;;;17.58;43.78;93340.22;5074998;28;20027;-85
2023/03/08 10:59:33;;;;;;;3.40;1.60;;;;;;;17.52;42.48;93331.72;5074957;28;20029;-85
2023/03/08 11:02:17;;;;;;;;;;;;;;;18.04;41.88;93351.28;5075499;28;20087;-85
2023/03/08 11:04:54;;;;;;;6.45;1.67;;;;;;;17.43;42.32;93336.38;5074962;28;19991;-85
2023/03/08 11:07:26;;;;;;;5.15;1.83;;;;;;;17.04;43.50;93337.56;5075229;28;20032;-85
2023/03/08 11:10:09;;;;;;;5.90;2.00;;;;;;;16.73;43.95;93336.22;5078597;28;20021;-85
2023/03/08 11:12:34;;;;;;;6.88;1.67;;;;;;;16.97;44.04;93332.03;5078734;28;20020;-85
2023/03/08 11:15:00;;;;;;;6.78;1.77;;;;;;;17.24;44.21;93306.00;5079784;28;20031;-85
2023/03/08 11:17:38;;;;;;;5.22;2.00;;;;;;;17.33;43.27;93317.19;5078581;28;20032;-85
2023/03/08 11:20:19;;;;;;;6.72;1.70;;;;;;;17.57;43.50;93320.09;5078517;28;20400;-85
2023/03/08 11:22:57;;;;;;;7.10;1.65;;;;;;;19.19;40.96;93314.53;5078576;28;20028;-85
2023/03/08 11:25:56;;;;;;;5.90;1.70;;;;;;;19.64;42.26;93318.47;5079678;28;20029;-85
2023/03/08 11:28:43;;;;;;;9.02;1.80;;;;;;;19.13;40.48;93326.56;5061662;28;20039;-85
2023/03/08 11:31:26;;;;;;;5.88;1.77;;;;;;;19.18;41.79;93340.31;5078375;28;20034;-85
2023/03/08 11:34:30;;;;;;;13.13;1.98;;;;;;;19.15;42.49;93329.63;5079614;28;20350;-85
2023/03/08 11:37:03;;;;;;;5.82;2.28;;;;;;;18.18;44.06;93320.97;5055014;28;20044;-85